Time;durP1;ratioP1;P1;durP2;ratioP2;P2;SDS_P1;SDS_P2;PMS_P1;PMS_P2;Temp;Humidity;BMP_temperature;BMP_pressure;BME280_temperature;BME280_humidity;BME280_pressure;Samples;Min_cycle;Max_cycle;Signal;HPM_P1;HPM_P2
2023/08/08 00:00:58;;;;;;;0.40;0.40;;;;;;;15.06;78.60;99526.34;5075695;28;20044;-66
2023/08/08 00:03:29;;;;;;;0.50;0.50;;;;;;;15.09;78.40;99530.59;5075202;28;20044;-65
2023/08/08 00:05:58;;;;;;;0.40;0.40;;;;;;;15.11;78.59;99528.81;5075591;28;20487;-66
2023/08/08 00:08:27;;;;;;;0.50;0.50;;;;;;;15.13;78.80;99540.75;5075194;28;20040;-64
2023/08/08 00:10:56;;;;;;;0.20;0.20;;;;;;;15.05;78.92;99528.94;5075149;28;20043;-63
2023/08/08 00:13:25;;;;;;;0.40;0.40;;;;;;;15.00;78.81;99520.47;5074971;28;20044;-66
2023/08/08 00:15:54;;;;;;;0.65;0.60;;;;;;;14.94;78.98;99525.75;5075225;28;20043;-64
2023/08/08 00:18:23;;;;;;;0.37;0.33;;;;;;;14.97;79.53;99530.84;5075299;28;20123;-64
2023/08/08 00:20:53;;;;;;;0.40;0.40;;;;;;;14.99;78.87;99541.94;5074905;28;20048;-64
2023/08/08 00:23:22;;;;;;;0.20;0.20;;;;;;;15.01;78.85;99537.59;5074888;28;20284;-66
2023/08/08 00:25:51;;;;;;;0.65;0.65;;;;;;;15.00;79.14;99535.88;5075173;28;20036;-66
2023/08/08 00:28:20;;;;;;;0.70;0.70;;;;;;;15.00;79.50;99533.31;5074713;28;20028;-67
2023/08/08 00:30:49;;;;;;;0.40;0.40;;;;;;;14.97;79.53;99544.50;5074724;28;20051;-66
2023/08/08 00:33:18;;;;;;;0.40;0.40;;;;;;;15.02;79.10;99544.44;5074563;28;20071;-65
2023/08/08 00:35:47;;;;;;;0.40;0.40;;;;;;;15.04;79.22;99552.97;5075202;28;20402;-65
2023/08/08 00:38:18;;;;;;;0.38;0.38;;;;;;;15.05;79.07;99537.50;5074645;28;20120;-66
2023/08/08 00:40:47;;;;;;;0.50;0.50;;;;;;;15.06;79.10;99556.34;5074466;28;20060;-66
2023/08/08 00:43:16;;;;;;;1.08;0.90;;;;;;;15.11;79.34;99565.66;5074425;28;20051;-64
2023/08/08 00:45:46;;;;;;;0.40;0.40;;;;;;;15.14;79.92;99559.59;5073477;28;20048;-65
2023/08/08 00:48:15;;;;;;;0.40;0.40;;;;;;;15.10;80.33;99563.09;5074944;28;20432;-65
2023/08/08 00:50:45;;;;;;;0.50;0.50;;;;;;;15.05;80.55;99559.78;5074342;28;20554;-66
2023/08/08 00:53:16;;;;;;;0.40;0.40;;;;;;;15.00;80.53;99572.72;5074494;28;20045;-65
2023/08/08 00:55:46;;;;;;;0.50;0.50;;;;;;;15.01;80.52;99565.88;5074584;28;20068;-65
2023/08/08 00:58:17;;;;;;;0.30;0.30;;;;;;;15.01;80.53;99568.44;5074518;28;20424;-64
2023/08/08 01:00:46;;;;;;;0.60;0.60;;;;;;;14.98;79.98;99568.50;5074199;28;20079;-65
2023/08/08 01:03:15;;;;;;;0.40;0.40;;;;;;;14.98;79.96;99563.34;5074446;28;20051;-65
2023/08/08 01:05:49;;;;;;;0.38;0.38;;;;;;;14.96;79.92;99558.25;5074407;28;20368;-66
2023/08/08 01:08:24;;;;;;;0.40;0.40;;;;;;;14.91;79.91;99572.06;5074065;28;20056;-66
2023/08/08 01:10:55;;;;;;;0.30;0.30;;;;;;;14.87;80.52;99570.44;5074843;28;20094;-66
2023/08/08 01:13:29;;;;;;;1.25;1.15;;;;;;;14.75;80.19;99577.53;5073973;28;20119;-66
2023/08/08 01:15:59;;;;;;;0.47;0.38;;;;;;;14.65;80.61;99583.72;5089887;28;20094;-66
2023/08/08 01:18:32;;;;;;;0.40;0.40;;;;;;;14.62;80.63;99581.19;5073959;28;20049;-66
2023/08/08 01:21:04;;;;;;;0.32;0.32;;;;;;;14.66;80.79;99587.94;5074282;28;20102;-66
2023/08/08 01:23:42;;;;;;;0.40;0.40;;;;;;;14.63;80.95;99582.91;5074227;28;20075;-66
2023/08/08 01:26:13;;;;;;;0.40;0.40;;;;;;;14.58;81.20;99577.00;5072607;28;20048;-65
2023/08/08 01:28:44;;;;;;;0.30;0.30;;;;;;;14.60;80.88;99582.94;5073808;28;20132;-65
2023/08/08 01:31:13;;;;;;;0.30;0.30;;;;;;;14.61;80.75;99578.66;5073524;28;20480;-66
2023/08/08 01:33:42;;;;;;;;;;;;;;;14.66;80.62;99579.44;5074024;28;20048;-65
2023/08/08 01:36:21;;;;;;;0.38;0.38;;;;;;;14.64;80.75;99584.56;5073971;28;19920;-65
2023/08/08 01:38:55;;;;;;;0.35;0.35;;;;;;;14.55;81.20;99584.75;5073671;28;20064;-65
2023/08/08 01:41:27;;;;;;;0.30;0.30;;;;;;;14.46;81.37;99579.78;5073679;28;20044;-65
2023/08/08 01:43:56;;;;;;;0.57;0.57;;;;;;;14.40;81.84;99574.75;5072475;28;20044;-65
2023/08/08 01:46:25;;;;;;;;;;;;;;;14.41;82.16;99580.72;5073925;28;20055;-66
2023/08/08 01:48:54;;;;;;;0.22;0.22;;;;;;;14.42;81.94;99585.81;5072422;28;20007;-66
2023/08/08 01:51:25;;;;;;;1.25;0.63;;;;;;;14.34;82.45;99590.28;5073589;28;20041;-66
2023/08/08 01:53:54;;;;;;;0.30;0.30;;;;;;;14.29;82.80;99586.91;5072262;28;20049;-65
2023/08/08 01:56:24;;;;;;;0.60;0.60;;;;;;;14.24;82.51;99578.44;5073394;28;20139;-64
2023/08/08 01:58:54;;;;;;;0.30;0.30;;;;;;;14.24;83.20;99581.00;5072259;28;20037;-65
2023/08/08 02:01:23;;;;;;;0.55;0.55;;;;;;;14.15;83.19;99588.84;5072686;28;20032;-65
2023/08/08 02:03:52;;;;;;;0.40;0.40;;;;;;;14.06;83.22;99584.69;5073711;28;20045;-66
2023/08/08 02:06:21;;;;;;;0.30;0.30;;;;;;;14.06;83.52;99596.69;5089223;28;20036;-64
2023/08/08 02:08:50;;;;;;;0.40;0.40;;;;;;;13.98;83.46;99590.84;5073411;28;20045;-65
2023/08/08 02:11:21;;;;;;;0.30;0.30;;;;;;;13.90;83.71;99587.53;5073604;28;20282;-65
2023/08/08 02:13:50;;;;;;;0.55;0.55;;;;;;;13.85;84.15;99585.06;5072163;28;20491;-66
2023/08/08 02:16:21;;;;;;;1.00;0.43;;;;;;;13.84;83.91;99582.53;5073292;28;20059;-65
2023/08/08 02:18:50;;;;;;;0.40;0.40;;;;;;;13.79;84.21;99579.19;5072144;28;20495;-65
2023/08/08 02:21:21;;;;;;;0.63;0.63;;;;;;;13.77;84.11;99579.19;5073317;28;20055;-64
2023/08/08 02:23:50;;;;;;;0.30;0.30;;;;;;;13.75;84.44;99577.53;5073525;28;20495;-64
2023/08/08 02:26:19;;;;;;;0.30;0.30;;;;;;;13.74;84.36;99581.81;5073242;28;20090;-63
2023/08/08 02:28:49;;;;;;;0.50;0.50;;;;;;;13.67;84.94;99585.34;5073145;28;20053;-66
2023/08/08 02:31:20;;;;;;;0.40;0.40;;;;;;;13.66;84.79;99590.47;5072315;28;20051;-65
2023/08/08 02:33:54;;;;;;;0.30;0.30;;;;;;;13.62;85.31;99597.38;5073959;28;20102;-65
2023/08/08 02:36:25;;;;;;;0.98;0.98;;;;;;;13.65;85.01;99606.75;5073156;28;20060;-65
2023/08/08 02:38:54;;;;;;;0.43;0.43;;;;;;;13.63;84.89;99598.25;5073279;28;20475;-64
2023/08/08 02:41:23;;;;;;;2.73;0.50;;;;;;;13.64;84.79;99602.47;5074190;28;20517;-64
2023/08/08 02:43:52;;;;;;;0.73;0.47;;;;;;;13.67;84.94;99610.13;5077184;28;20084;-65
2023/08/08 02:46:21;;;;;;;0.53;0.53;;;;;;;13.73;84.47;99615.16;5075620;28;20059;-65
2023/08/08 02:48:50;;;;;;;;;;;;;;;13.79;84.45;99609.97;5077130;28;20458;-66
2023/08/08 02:51:20;;;;;;;17.55;0.77;;;;;;;13.79;83.93;99615.94;5076650;28;19920;-66
2023/08/08 02:53:49;;;;;;;0.38;0.38;;;;;;;13.81;83.43;99613.34;5092633;28;20049;-66
2023/08/08 02:56:18;;;;;;;0.40;0.40;;;;;;;13.81;82.90;99614.19;5075620;28;20040;-65
2023/08/08 02:58:47;;;;;;;0.55;0.55;;;;;;;13.81;83.13;99614.19;5092772;28;20055;-64
2023/08/08 03:01:16;;;;;;;0.32;0.32;;;;;;;13.76;82.72;99620.25;5076537;28;20045;-63
2023/08/08 03:03:48;;;;;;;0.50;0.50;;;;;;;13.72;83.23;99623.75;5076488;28;20106;-63
2023/08/08 03:06:21;;;;;;;0.30;0.30;;;;;;;13.72;82.71;99634.00;5092136;28;20398;-63
2023/08/08 03:08:52;;;;;;;0.60;0.60;;;;;;;13.72;82.80;99634.00;5076643;28;20044;-66
2023/08/08 03:11:21;;;;;;;0.65;0.50;;;;;;;13.69;82.97;99634.91;5075517;28;20093;-63
2023/08/08 03:13:51;;;;;;;0.40;0.40;;;;;;;13.63;82.81;99641.84;5075149;28;20383;-63
2023/08/08 03:16:20;;;;;;;0.60;0.60;;;;;;;13.60;83.40;99647.00;5075041;28;20040;-64
2023/08/08 03:18:49;;;;;;;0.30;0.30;;;;;;;13.61;83.40;99640.97;5076498;28;20520;-63
2023/08/08 03:21:20;;;;;;;0.60;0.60;;;;;;;13.56;83.48;99645.31;5076112;28;20041;-63
2023/08/08 03:23:51;;;;;;;0.30;0.30;;;;;;;13.56;83.29;99648.75;5076215;28;20127;-64
2023/08/08 03:26:20;;;;;;;0.38;0.38;;;;;;;13.49;83.32;99647.13;5076079;28;20041;-64
2023/08/08 03:28:50;;;;;;;0.85;0.73;;;;;;;13.49;83.56;99646.28;5075944;28;20040;-65
2023/08/08 03:31:23;;;;;;;0.52;0.52;;;;;;;13.37;83.37;99648.13;5075012;28;20082;-65
2023/08/08 03:33:53;;;;;;;0.40;0.40;;;;;;;13.40;83.65;99647.25;5091680;28;20123;-65
2023/08/08 03:36:23;;;;;;;0.40;0.40;;;;;;;13.36;83.43;99651.56;5075851;28;20055;-66
2023/08/08 03:38:52;;;;;;;0.60;0.60;;;;;;;13.32;83.41;99649.06;5076648;28;20055;-65
2023/08/08 03:41:21;;;;;;;0.50;0.50;;;;;;;13.34;83.47;99653.28;5074622;28;20060;-63
2023/08/08 03:43:51;;;;;;;0.47;0.47;;;;;;;13.37;82.95;99660.09;5076289;28;20055;-64
2023/08/08 03:46:20;;;;;;;0.52;0.52;;;;;;;13.32;83.32;99662.72;5074849;28;20082;-64
2023/08/08 03:48:49;;;;;;;;;;;;;;;13.34;83.55;99662.72;5076036;28;20098;-66
2023/08/08 03:51:23;;;;;;;1.05;0.57;;;;;;;13.36;83.67;99659.25;5075622;28;19926;-65
2023/08/08 03:53:52;;;;;;;0.63;0.63;;;;;;;13.41;83.15;99670.28;5075355;28;20068;-65
2023/08/08 03:56:21;;;;;;;0.50;0.38;;;;;;;13.44;83.58;99670.28;5074750;28;20044;-65
2023/08/08 03:58:50;;;;;;;1.73;1.63;;;;;;;13.41;83.80;99675.44;5074583;28;20059;-66
2023/08/08 04:01:18;;;;;;;1.30;0.70;;;;;;;13.43;83.75;99673.72;5075814;28;20398;-64
2023/08/08 04:03:47;;;;;;;0.60;0.60;;;;;;;13.47;83.98;99678.78;5075389;28;20094;-65
2023/08/08 04:06:16;;;;;;;0.40;0.40;;;;;;;13.52;83.97;99684.72;5075345;28;20132;-65
2023/08/08 04:08:47;;;;;;;1.40;1.17;;;;;;;13.54;83.84;99680.41;5074323;28;20028;-64
2023/08/08 04:11:16;;;;;;;0.80;0.80;;;;;;;13.58;83.99;99677.78;5075140;28;20281;-64
2023/08/08 04:13:44;;;;;;;4.77;1.37;;;;;;;13.66;83.57;99685.38;5073977;28;20094;-64
2023/08/08 04:16:14;;;;;;;0.45;0.45;;;;;;;13.76;83.78;99682.69;5074998;28;20495;-65
2023/08/08 04:18:42;;;;;;;0.80;0.80;;;;;;;13.79;83.31;99681.78;5075422;28;20036;-64
2023/08/08 04:21:11;;;;;;;1.00;0.63;;;;;;;13.85;83.13;99690.25;5074931;28;20277;-64
2023/08/08 04:23:40;;;;;;;0.93;0.63;;;;;;;13.90;83.40;99693.59;5074928;28;20317;-63
2023/08/08 04:26:10;;;;;;;0.47;0.47;;;;;;;13.99;83.02;99700.31;5075091;28;20040;-64
2023/08/08 04:28:39;;;;;;;0.63;0.57;;;;;;;14.04;83.11;99695.94;5075167;28;20048;-63
2023/08/08 04:31:08;;;;;;;0.50;0.50;;;;;;;14.11;83.15;99695.00;5074711;28;20113;-64
2023/08/08 04:33:37;;;;;;;0.75;0.65;;;;;;;14.16;82.57;99693.22;5074809;28;20578;-65
2023/08/08 04:36:06;;;;;;;0.70;0.70;;;;;;;14.23;82.49;99699.13;5074813;28;20425;-65
2023/08/08 04:38:35;;;;;;;0.65;0.45;;;;;;;14.28;82.44;99699.88;5074878;28;20123;-64
2023/08/08 04:41:04;;;;;;;0.30;0.30;;;;;;;14.38;82.13;99704.03;5074344;28;20541;-65
2023/08/08 04:43:34;;;;;;;0.40;0.40;;;;;;;14.47;81.56;99699.59;5074562;28;20282;-64
2023/08/08 04:46:03;;;;;;;0.98;0.98;;;;;;;14.58;81.66;99704.56;5074510;28;20274;-66
2023/08/08 04:48:32;;;;;;;1.03;0.93;;;;;;;14.63;81.40;99706.19;5074434;28;20037;-65
2023/08/08 04:51:02;;;;;;;0.85;0.85;;;;;;;14.69;81.31;99718.94;5074417;28;20052;-65
2023/08/08 04:53:31;;;;;;;0.50;0.50;;;;;;;14.76;80.88;99717.94;5074608;28;20041;-63
2023/08/08 04:55:59;;;;;;;0.60;0.60;;;;;;;14.81;80.88;99714.44;5074245;28;20289;-62
2023/08/08 04:58:29;;;;;;;0.60;0.60;;;;;;;14.89;80.79;99722.88;5074270;28;20048;-65
2023/08/08 05:01:00;;;;;;;0.50;0.50;;;;;;;14.94;81.04;99726.22;5074201;28;20036;-66
2023/08/08 05:03:29;;;;;;;5.55;0.85;;;;;;;15.00;81.00;99721.81;5074163;28;20068;-63
2023/08/08 05:05:58;;;;;;;0.80;0.50;;;;;;;15.03;80.73;99726.03;5073259;28;20124;-63
2023/08/08 05:08:27;;;;;;;;;;;;;;;15.00;80.38;99732.09;5074766;28;20044;-65
2023/08/08 05:10:56;;;;;;;0.40;0.40;;;;;;;15.15;80.59;99736.09;5074087;28;19920;-65
2023/08/08 05:13:25;;;;;;;0.50;0.50;;;;;;;15.21;80.27;99746.28;5073942;28;20090;-65
2023/08/08 05:15:54;;;;;;;0.40;0.40;;;;;;;15.27;79.82;99746.16;5073970;28;20033;-65
2023/08/08 05:18:24;;;;;;;0.43;0.43;;;;;;;15.33;79.37;99746.06;5074207;28;20836;-64
2023/08/08 05:20:53;;;;;;;0.80;0.80;;;;;;;15.43;79.51;99747.56;5073992;28;20124;-64
2023/08/08 05:23:22;;;;;;;0.60;0.60;;;;;;;15.47;78.66;99753.53;5074085;28;20024;-64
2023/08/08 05:25:51;;;;;;;0.38;0.38;;;;;;;15.47;78.89;99749.25;5073811;28;20119;-64
2023/08/08 05:28:20;;;;;;;0.50;0.50;;;;;;;15.56;78.67;99751.63;5073727;28;20131;-64
2023/08/08 05:30:49;;;;;;;0.90;0.90;;;;;;;15.63;78.32;99755.78;5073743;28;20090;-65
2023/08/08 05:33:18;;;;;;;0.40;0.40;;;;;;;15.66;78.14;99760.88;5073823;28;20113;-66
2023/08/08 05:35:48;;;;;;;0.75;0.75;;;;;;;15.67;77.80;99766.88;5073661;28;20284;-65
2023/08/08 05:38:17;;;;;;;0.30;0.30;;;;;;;15.71;78.19;99765.94;5073305;28;20478;-65
2023/08/08 05:40:46;;;;;;;0.40;0.40;;;;;;;15.81;78.01;99770.84;5073640;28;20425;-64
2023/08/08 05:43:18;;;;;;;0.40;0.40;;;;;;;15.82;77.95;99772.56;5074246;28;20097;-64
2023/08/08 05:45:47;;;;;;;0.30;0.30;;;;;;;15.81;77.85;99768.25;5073630;28;20494;-63
2023/08/08 05:48:15;;;;;;;0.30;0.30;;;;;;;15.92;77.54;99762.91;5073738;28;20429;-65
2023/08/08 05:50:44;;;;;;;0.57;0.57;;;;;;;16.00;77.56;99763.59;5073479;28;20094;-65
2023/08/08 05:53:15;;;;;;;0.60;0.60;;;;;;;16.14;76.92;99761.56;5073962;28;20032;-63
2023/08/08 05:55:44;;;;;;;0.60;0.60;;;;;;;16.25;76.48;99749.28;5073768;28;20052;-65
2023/08/08 05:58:12;;;;;;;0.60;0.60;;;;;;;16.42;76.02;99748.91;5073445;28;20521;-65
2023/08/08 06:00:42;;;;;;;0.40;0.40;;;;;;;16.58;75.60;99750.28;5073397;28;20048;-64
2023/08/08 06:03:11;;;;;;;0.40;0.40;;;;;;;16.44;75.29;99741.97;5073719;28;20124;-64
2023/08/08 06:05:40;;;;;;;1.80;1.37;;;;;;;16.41;74.89;99742.09;5073610;28;20102;-65
2023/08/08 06:08:11;;;;;;;0.50;0.50;;;;;;;16.40;74.80;99736.06;5073625;28;20322;-65
2023/08/08 06:10:42;;;;;;;0.50;0.50;;;;;;;16.49;74.71;99729.84;5073315;28;20502;-66
2023/08/08 06:13:11;;;;;;;0.50;0.50;;;;;;;16.60;74.51;99741.63;5073196;28;20055;-64
2023/08/08 06:15:40;;;;;;;0.53;0.53;;;;;;;16.64;73.44;99744.97;5073349;28;20051;-65
2023/08/08 06:18:09;;;;;;;0.60;0.60;;;;;;;16.67;73.27;99739.75;5077222;28;20293;-64
2023/08/08 06:20:38;;;;;;;0.50;0.50;;;;;;;16.83;73.04;99742.78;5077299;28;20362;-65
2023/08/08 06:23:07;;;;;;;0.47;0.47;;;;;;;16.89;72.78;99751.25;5077238;28;20047;-66
2023/08/08 06:25:36;;;;;;;0.50;0.50;;;;;;;16.78;72.04;99742.91;5077140;28;20068;-65
2023/08/08 06:28:07;;;;;;;0.40;0.40;;;;;;;16.80;72.01;99735.97;5077475;28;20044;-66
2023/08/08 06:30:36;;;;;;;0.73;0.73;;;;;;;16.86;72.31;99737.56;5077307;28;20109;-65
2023/08/08 06:33:05;;;;;;;0.47;0.47;;;;;;;16.90;72.01;99742.59;5077446;28;20128;-64
2023/08/08 06:35:34;;;;;;;0.40;0.40;;;;;;;17.01;71.73;99740.59;5077130;28;20299;-65
2023/08/08 06:38:04;;;;;;;0.43;0.43;;;;;;;17.17;71.27;99744.47;5076807;28;20033;-66
2023/08/08 06:40:33;;;;;;;0.50;0.50;;;;;;;17.20;70.95;99746.94;5076967;28;20055;-65
2023/08/08 06:43:01;;;;;;;0.50;0.50;;;;;;;17.19;70.96;99750.44;5077327;28;20067;-64
2023/08/08 06:45:32;;;;;;;0.50;0.50;;;;;;;17.23;70.74;99741.72;5077023;28;20044;-65
2023/08/08 06:48:01;;;;;;;0.50;0.50;;;;;;;17.22;70.48;99744.34;5077001;28;20051;-65
2023/08/08 06:50:30;;;;;;;0.43;0.43;;;;;;;17.23;70.73;99746.88;5077011;28;20162;-64
2023/08/08 06:52:59;;;;;;;0.50;0.50;;;;;;;17.20;70.60;99752.13;5076639;28;20044;-64
2023/08/08 06:55:28;;;;;;;0.40;0.40;;;;;;;17.29;70.99;99749.31;5076488;28;20280;-64
2023/08/08 06:57:56;;;;;;;0.82;0.82;;;;;;;17.38;71.09;99751.63;5076699;28;20276;-64
2023/08/08 07:00:27;;;;;;;0.40;0.40;;;;;;;17.48;70.69;99756.53;5076471;28;20091;-64
2023/08/08 07:02:57;;;;;;;0.85;0.57;;;;;;;17.43;70.57;99754.09;5076695;28;20040;-65
2023/08/08 07:05:30;;;;;;;2.78;1.23;;;;;;;17.46;70.40;99758.31;5076419;28;20113;-64
2023/08/08 07:07:59;;;;;;;1.13;1.02;;;;;;;17.49;70.50;99761.69;5076401;28;20127;-64
2023/08/08 07:10:29;;;;;;;;;;;;;;;17.52;70.13;99760.75;5076761;28;20075;-65
2023/08/08 07:12:58;;;;;;;0.50;0.50;;;;;;;17.58;70.04;99763.19;5076204;28;19970;-63
2023/08/08 07:15:27;;;;;;;0.40;0.40;;;;;;;17.78;70.34;99764.28;5076372;28;20494;-65
2023/08/08 07:17:58;;;;;;;0.60;0.60;;;;;;;17.92;70.63;99758.75;5076312;28;20113;-65
2023/08/08 07:20:27;;;;;;;0.60;0.60;;;;;;;18.02;70.03;99770.50;5076322;28;20072;-65
2023/08/08 07:22:56;;;;;;;0.70;0.70;;;;;;;18.04;69.59;99771.31;5076246;28;20045;-65
2023/08/08 07:25:25;;;;;;;0.50;0.50;;;;;;;17.96;69.36;99771.53;5076073;28;20098;-65
2023/08/08 07:27:54;;;;;;;1.25;0.68;;;;;;;17.88;69.05;99775.22;5075131;28;20044;-65
2023/08/08 07:30:23;;;;;;;1.13;1.00;;;;;;;17.90;69.32;99776.03;5076209;28;20080;-65
2023/08/08 07:32:51;;;;;;;0.47;0.47;;;;;;;18.02;69.18;99776.50;5076059;28;20123;-63
2023/08/08 07:35:22;;;;;;;0.65;0.63;;;;;;;18.10;68.95;99773.69;5075907;28;20098;-64
2023/08/08 07:37:51;;;;;;;0.60;0.50;;;;;;;18.11;68.58;99783.16;5075785;28;20044;-66
2023/08/08 07:40:21;;;;;;;0.60;0.60;;;;;;;18.08;68.63;99775.47;5075938;28;20045;-65
2023/08/08 07:42:50;;;;;;;0.40;0.40;;;;;;;18.12;68.24;99782.25;5075738;28;20049;-65
2023/08/08 07:45:19;;;;;;;0.50;0.50;;;;;;;18.00;67.80;99792.94;5076043;28;20063;-65
2023/08/08 07:47:48;;;;;;;0.60;0.60;;;;;;;17.95;67.84;99784.47;5076126;28;20068;-65
2023/08/08 07:50:17;;;;;;;0.70;0.70;;;;;;;18.01;67.78;99780.00;5075647;28;20422;-66
2023/08/08 07:52:48;;;;;;;0.73;0.73;;;;;;;18.03;67.76;99772.19;5075798;28;20052;-64
2023/08/08 07:55:18;;;;;;;0.50;0.50;;;;;;;18.09;67.93;99772.03;5076164;28;20441;-65
2023/08/08 07:57:47;;;;;;;0.82;0.80;;;;;;;18.24;67.99;99766.38;5075570;28;20037;-64
2023/08/08 08:00:18;;;;;;;0.77;0.77;;;;;;;18.47;68.16;99760.53;5075449;28;20499;-64
2023/08/08 08:02:47;;;;;;;0.70;0.70;;;;;;;18.60;67.52;99757.50;5075386;28;20051;-64
2023/08/08 08:05:18;;;;;;;0.40;0.40;;;;;;;18.43;66.68;99756.31;5075278;28;20048;-64
2023/08/08 08:07:48;;;;;;;0.50;0.50;;;;;;;18.38;66.37;99753.88;5075789;28;20399;-66
2023/08/08 08:10:18;;;;;;;0.40;0.40;;;;;;;18.27;66.61;99748.19;5075584;28;20407;-64
2023/08/08 08:12:47;;;;;;;0.43;0.43;;;;;;;18.16;66.47;99752.88;5075986;28;20044;-65
2023/08/08 08:15:15;;;;;;;0.60;0.60;;;;;;;18.28;66.00;99754.22;5075377;28;20036;-64
2023/08/08 08:17:44;;;;;;;0.73;0.73;;;;;;;18.54;66.35;99752.56;5074906;28;20044;-65
2023/08/08 08:20:14;;;;;;;0.97;0.77;;;;;;;18.69;66.24;99754.63;5075252;28;20055;-64
2023/08/08 08:22:43;;;;;;;0.47;0.47;;;;;;;18.79;66.22;99746.59;5075209;28;20055;-64
2023/08/08 08:25:15;;;;;;;0.75;0.75;;;;;;;18.78;65.48;99737.97;5074948;28;20098;-64
2023/08/08 08:27:44;;;;;;;0.50;0.50;;;;;;;18.86;65.01;99735.16;5074935;28;20094;-65
2023/08/08 08:30:14;;;;;;;3.40;1.02;;;;;;;18.90;66.09;99728.97;5074841;28;20127;-65
2023/08/08 08:32:45;;;;;;;0.77;0.68;;;;;;;19.04;66.26;99737.09;5075060;28;20102;-64
2023/08/08 08:35:14;;;;;;;0.40;0.40;;;;;;;18.99;65.77;99737.25;5074763;28;20048;-64
2023/08/08 08:37:43;;;;;;;0.55;0.55;;;;;;;18.92;65.32;99740.09;5074861;28;20448;-65
2023/08/08 08:40:14;;;;;;;0.60;0.60;;;;;;;18.81;65.09;99732.72;5074200;28;20056;-65
2023/08/08 08:42:46;;;;;;;0.50;0.50;;;;;;;18.71;64.40;99737.31;5074971;28;20105;-65
2023/08/08 08:45:21;;;;;;;1.05;0.80;;;;;;;18.89;64.19;99735.00;5074544;28;20544;-66
2023/08/08 08:47:54;;;;;;;0.60;0.60;;;;;;;19.13;64.44;99736.78;5075054;28;20040;-63
2023/08/08 08:50:27;;;;;;;0.93;0.93;;;;;;;19.39;64.43;99742.75;5074467;28;20049;-64
2023/08/08 08:52:57;;;;;;;0.85;0.85;;;;;;;19.56;63.93;99738.72;5074368;28;20048;-64
2023/08/08 08:55:29;;;;;;;0.82;0.82;;;;;;;19.68;63.29;99749.47;5074330;28;20044;-63
2023/08/08 08:57:57;;;;;;;0.80;0.80;;;;;;;19.84;62.81;99742.81;5074145;28;20072;-62
2023/08/08 09:00:26;;;;;;;0.77;0.70;;;;;;;20.04;62.67;99742.94;5074226;28;20036;-64
2023/08/08 09:02:56;;;;;;;0.40;0.40;;;;;;;20.06;62.38;99741.13;5074451;28;20483;-64
2023/08/08 09:05:26;;;;;;;0.55;0.55;;;;;;;19.75;62.15;99739.72;5073091;28;20095;-64
2023/08/08 09:07:56;;;;;;;0.50;0.50;;;;;;;19.73;62.86;99736.34;5074338;28;20060;-64
2023/08/08 09:10:32;;;;;;;0.40;0.40;;;;;;;19.85;62.55;99734.16;5074279;28;20072;-63
2023/08/08 09:13:01;;;;;;;0.55;0.55;;;;;;;20.00;62.42;99736.19;5074362;28;20048;-67
2023/08/08 09:15:32;;;;;;;0.98;0.90;;;;;;;20.10;61.80;99730.63;5073873;28;20060;-65
2023/08/08 09:18:01;;;;;;;0.50;0.50;;;;;;;20.24;61.34;99728.38;5073914;28;20053;-66
2023/08/08 09:20:31;;;;;;;1.23;1.13;;;;;;;20.36;60.96;99733.94;5073905;28;20121;-63
2023/08/08 09:23:00;;;;;;;0.40;0.40;;;;;;;20.46;61.23;99737.84;5074138;28;20032;-65
2023/08/08 09:25:30;;;;;;;0.43;0.43;;;;;;;20.46;60.93;99735.28;5073905;28;20486;-65
2023/08/08 09:27:59;;;;;;;0.70;0.70;;;;;;;20.21;61.09;99734.50;5073987;28;20048;-65
2023/08/08 09:30:28;;;;;;;0.60;0.60;;;;;;;20.15;61.56;99731.31;5073865;28;20106;-64
2023/08/08 09:33:01;;;;;;;0.70;0.70;;;;;;;20.26;61.30;99734.34;5073863;28;20057;-65
2023/08/08 09:35:30;;;;;;;0.50;0.50;;;;;;;20.27;60.71;99733.47;5073914;28;20086;-64
2023/08/08 09:38:00;;;;;;;0.40;0.40;;;;;;;20.36;60.55;99728.75;5074006;28;20040;-65
2023/08/08 09:40:31;;;;;;;0.63;0.63;;;;;;;20.06;59.92;99725.56;5073458;28;20056;-65
2023/08/08 09:43:00;;;;;;;0.57;0.55;;;;;;;19.86;60.53;99728.09;5073469;28;20044;-64
2023/08/08 09:45:37;;;;;;;0.50;0.50;;;;;;;19.67;61.12;99727.09;5073935;28;20132;-64
2023/08/08 09:48:07;;;;;;;0.70;0.70;;;;;;;19.86;61.39;99730.69;5073905;28;20045;-66
2023/08/08 09:50:37;;;;;;;0.55;0.55;;;;;;;19.93;60.82;99719.19;5073058;28;20045;-67
2023/08/08 09:53:06;;;;;;;0.50;0.47;;;;;;;20.09;59.89;99714.25;5073391;28;20053;-65
2023/08/08 09:55:37;;;;;;;0.60;0.60;;;;;;;20.48;59.67;99711.84;5073498;28;20060;-65
2023/08/08 09:58:08;;;;;;;0.63;0.63;;;;;;;20.83;58.97;99703.47;5073588;28;20155;-64
2023/08/08 10:00:37;;;;;;;0.57;0.57;;;;;;;21.04;58.34;99702.53;5073527;28;20130;-64
2023/08/08 10:03:07;;;;;;;0.38;0.38;;;;;;;21.19;57.94;99704.50;5073681;28;20509;-64
2023/08/08 10:05:37;;;;;;;2.75;0.75;;;;;;;20.94;57.47;99696.06;5073352;28;20043;-65
2023/08/08 10:08:06;;;;;;;0.50;0.50;;;;;;;20.61;58.48;99698.31;5073677;28;20050;-66
2023/08/08 10:10:38;;;;;;;0.70;0.70;;;;;;;20.45;59.00;99693.81;5073337;28;20051;-67
2023/08/08 10:13:08;;;;;;;0.50;0.50;;;;;;;20.25;59.06;99693.78;5073578;28;20080;-65
2023/08/08 10:15:38;;;;;;;0.80;0.63;;;;;;;20.16;59.97;99694.94;5073256;28;20045;-67
2023/08/08 10:18:08;;;;;;;0.55;0.55;;;;;;;20.01;60.00;99701.56;5073459;28;20053;-65
2023/08/08 10:20:37;;;;;;;0.50;0.50;;;;;;;19.99;59.74;99695.63;5073477;28;20486;-63
2023/08/08 10:23:08;;;;;;;0.45;0.45;;;;;;;20.10;59.80;99694.34;5073168;28;20126;-65
2023/08/08 10:25:44;;;;;;;0.47;0.47;;;;;;;20.18;58.86;99681.94;5073518;28;20047;-64
2023/08/08 10:28:18;;;;;;;0.50;0.50;;;;;;;20.26;58.00;99682.50;5073447;28;20049;-65
2023/08/08 10:30:56;;;;;;;1.38;0.80;;;;;;;20.38;57.86;99679.41;5073177;28;20076;-66
2023/08/08 10:33:27;;;;;;;0.50;0.50;;;;;;;20.35;57.53;99676.94;5073124;28;20131;-66
2023/08/08 10:36:01;;;;;;;2.08;0.75;;;;;;;20.35;57.29;99674.34;5073649;28;20135;-65
2023/08/08 10:38:42;;;;;;;0.40;0.40;;;;;;;20.28;56.87;99678.09;5073392;28;20047;-65
2023/08/08 10:41:13;;;;;;;0.43;0.43;;;;;;;20.25;57.08;99671.28;5073041;28;20071;-66
2023/08/08 10:43:50;;;;;;;0.50;0.50;;;;;;;20.18;57.33;99671.59;5073291;28;20052;-66
2023/08/08 10:46:29;;;;;;;0.60;0.60;;;;;;;20.17;58.01;99680.25;5073260;28;20093;-65
2023/08/08 10:48:59;;;;;;;;;;;;;;;20.02;57.76;99682.53;5073428;28;20051;-64
2023/08/08 10:51:35;;;;;;;0.40;0.40;;;;;;;19.83;58.67;99702.28;5072908;28;19920;-66
2023/08/08 10:54:06;;;;;;;2.25;0.90;;;;;;;19.72;60.68;99699.28;5072959;28;20048;-64
2023/08/08 10:56:38;;;;;;;0.75;0.73;;;;;;;19.62;62.91;99703.09;5072850;28;20050;-67
2023/08/08 10:59:16;;;;;;;0.43;0.43;;;;;;;19.41;64.32;99703.91;5073081;28;20028;-65
2023/08/08 11:01:50;;;;;;;2.72;1.30;;;;;;;19.40;65.74;99712.56;5073010;28;20054;-64
2023/08/08 11:04:21;;;;;;;2.28;1.42;;;;;;;19.34;66.61;99708.41;5076715;28;20048;-66
2023/08/08 11:06:50;;;;;;;0.60;0.60;;;;;;;19.27;66.81;99703.47;5076952;28;20098;-66
2023/08/08 11:09:19;;;;;;;0.60;0.60;;;;;;;19.24;67.00;99695.84;5076404;28;20041;-67
2023/08/08 11:11:50;;;;;;;0.60;0.60;;;;;;;19.27;67.75;99695.72;5075332;28;20047;-66
2023/08/08 11:14:20;;;;;;;0.50;0.50;;;;;;;19.36;67.90;99690.28;5076358;28;20044;-66
2023/08/08 11:16:52;;;;;;;0.50;0.50;;;;;;;19.53;67.81;99692.25;5076578;28;20067;-66
2023/08/08 11:19:22;;;;;;;0.60;0.60;;;;;;;19.70;67.27;99692.47;5076047;28;20044;-66
2023/08/08 11:21:51;;;;;;;0.50;0.50;;;;;;;19.83;66.72;99689.34;5076545;28;20043;-65
2023/08/08 11:24:21;;;;;;;0.52;0.52;;;;;;;19.99;66.00;99676.63;5076371;28;20139;-65
2023/08/08 11:26:52;;;;;;;;;;;;;;;20.11;65.19;99677.91;5076722;28;20040;-65
2023/08/08 11:29:23;;;;;;;0.50;0.50;;;;;;;20.22;64.35;99676.63;5076270;28;19932;-64
2023/08/08 11:31:52;;;;;;;0.50;0.50;;;;;;;20.26;63.80;99679.91;5075953;28;20131;-67
2023/08/08 11:34:21;;;;;;;1.48;1.25;;;;;;;20.08;63.30;99670.25;5076105;28;20491;-65
2023/08/08 11:36:50;;;;;;;0.50;0.50;;;;;;;19.86;62.92;99675.44;5076140;28;20386;-66
2023/08/08 11:39:20;;;;;;;0.40;0.40;;;;;;;19.75;62.68;99673.22;5075737;28;20718;-65
2023/08/08 11:41:49;;;;;;;0.57;0.57;;;;;;;19.71;62.71;99673.41;5075615;28;20449;-66
2023/08/08 11:44:20;;;;;;;1.08;0.68;;;;;;;19.61;62.95;99675.50;5075727;28;20047;-65
2023/08/08 11:46:49;;;;;;;10.25;2.00;;;;;;;19.59;63.10;99677.31;5074789;28;20398;-64